Pagina principale
METAR-TAF:

METAR-TAF

Aeroporti :

Aeroporto Internazionale di Marsa Alam

Marsa Alam, Egitto

latitudine: 25-33-25N, longitudine: 34-35-01E, altezza: 77 m

Osservazione

Il bollettino è stato emesso 36 minuti fa, alle 07:00 UTC
Vento 12 kt da nord/nord-ovest
Temperature 34°C
Umidità 23%
Pressione 1010 hPa
Visibilità 10 km o più
nessuna nube inferiore a 1500 m e nessun cumulonembo

METAR: HEMA 200700Z 34012KT CAVOK 34/10 Q1010 NOSIG

Ora: 09:36 (07:36 UTC)

Previsione

Il bollettino è stato emesso 2 ore e 36 minuti fa, alle 05:00 UTC
Previsione valida dal 20 alle 06 UTC al 21 alle 12 UTC
Vento 15 kt da nord
Visibilità 10 km o più
nessuna nube inferiore a 1500 m e nessun cumulonembo

TAF: HEMA 200500Z 2006/2112 36015KT CAVOK

Osservazioni e previsioni meteorologiche di più di 4000 aeroporti (messaggi METAR e TAF).

Le stazioni disponibili sono rappresentate dai dischi gialli e rossi sulla carta.

Puntare il mouse per vedere il nome della stazione.

Clicca sopra per visualizzare le osservazioni e previsioni meteorologiche.

Per cambiare la mappa : fare clic sui pulsanti verdi con una croce nera per ingrandire, il pulsante verde con un trattino per diminuire, o sulla freccia verde per le mappe adiacenti.


METAR-TAF: